Time;durP1;ratioP1;P1;durP2;ratioP2;P2;SDS_P1;SDS_P2;PMS_P1;PMS_P2;Temp;Humidity;BMP_temperature;BMP_pressure;BME280_temperature;BME280_humidity;BME280_pressure;Samples;Min_cycle;Max_cycle;Signal;HPM_P1;HPM_P2
2022/04/12 00:00:40;;;;;;;16.48;10.45;;;;;;;;;;5020315;28;20044;-75
2022/04/12 00:03:09;;;;;;;16.70;10.63;;;;;;;;;;5018460;28;20467;-76
2022/04/12 00:05:35;;;;;;;16.35;10.95;;;;;;;;;;5018358;28;20037;-76
2022/04/12 00:08:01;;;;;;;17.88;10.88;;;;;;;;;;5016818;28;20168;-76
2022/04/12 00:10:28;;;;;;;18.10;10.60;;;;;;;;;;5017827;28;20252;-76
2022/04/12 00:12:53;;;;;;;16.98;10.82;;;;;;;;;;5039123;28;20065;-76
2022/04/12 00:15:19;;;;;;;18.20;10.60;;;;;;;;;;5021254;28;20474;-76
2022/04/12 00:20:29;;;;;;;20.13;10.75;;;;;;;;;;5018071;28;20371;-75
2022/04/12 00:22:57;;;;;;;17.67;11.02;;;;;;;;;;5020279;28;20057;-76
2022/04/12 00:25:23;;;;;;;17.52;10.90;;;;;;;;;;5018750;28;20159;-75
2022/04/12 00:27:52;;;;;;;16.30;10.68;;;;;;;;;;5033949;28;20037;-75
2022/04/12 00:30:22;;;;;;;17.20;10.38;;;;;;;;;;5021551;28;20603;-75
2022/04/12 00:32:50;;;;;;;17.35;11.23;;;;;;;;;;5023006;28;20406;-75
2022/04/12 00:35:15;;;;;;;17.40;10.75;;;;;;;;;;5023744;28;20342;-75
2022/04/12 00:37:41;;;;;;;16.90;10.95;;;;;;;;;;5022527;28;20719;-75
2022/04/12 00:40:06;;;;;;;15.63;10.32;;;;;;;;;;5019528;28;20067;-76
2022/04/12 00:42:35;;;;;;;18.58;10.35;;;;;;;;;;5021749;28;20041;-76
2022/04/12 00:45:00;;;;;;;15.82;10.18;;;;;;;;;;5024951;28;20029;-76
2022/04/12 00:47:25;;;;;;;14.95;10.43;;;;;;;;;;5021662;28;20045;-75
2022/04/12 00:49:53;;;;;;;14.07;10.32;;;;;;;;;;5021905;28;20107;-75
2022/04/12 00:52:19;;;;;;;16.60;9.82;;;;;;;;;;5018918;28;20029;-75
2022/04/12 00:54:45;;;;;;;15.80;10.73;;;;;;;;;;5023264;28;20760;-74
2022/04/12 00:57:11;;;;;;;14.35;10.27;;;;;;;;;;5023433;28;20029;-76
2022/04/12 00:59:36;;;;;;;16.73;10.80;;;;;;;;;;5020237;28;20052;-75
2022/04/12 01:02:07;;;;;;;17.73;10.82;;;;;;;;;;5022899;28;20293;-75
2022/04/12 01:04:33;;;;;;;15.00;10.27;;;;;;;;;;5020610;28;20029;-75
2022/04/12 01:07:00;;;;;;;14.63;10.32;;;;;;;;;;5020897;28;20037;-75
2022/04/12 01:09:26;;;;;;;16.45;10.32;;;;;;;;;;5020236;28;20234;-75
2022/04/12 01:11:55;;;;;;;15.18;10.35;;;;;;;;;;5024301;28;20125;-75
2022/04/12 01:14:24;;;;;;;15.90;11.05;;;;;;;;;;5022092;28;20059;-75
2022/04/12 01:16:49;;;;;;;15.45;10.70;;;;;;;;;;5019818;28;20044;-76
2022/04/12 01:19:17;;;;;;;15.73;10.27;;;;;;;;;;5021321;28;20036;-76
2022/04/12 01:21:49;;;;;;;14.60;10.23;;;;;;;;;;5008417;28;20021;-74
2022/04/12 01:24:14;;;;;;;15.38;10.63;;;;;;;;;;5021332;28;20094;-75
2022/04/12 01:26:40;;;;;;;15.48;10.43;;;;;;;;;;4992248;28;20370;-76
2022/04/12 01:29:05;;;;;;;17.05;10.80;;;;;;;;;;5021670;28;20319;-75
2022/04/12 01:31:30;;;;;;;15.55;10.43;;;;;;;;;;5019093;28;20048;-75
2022/04/12 01:33:56;;;;;;;17.70;10.60;;;;;;;;;;5018724;28;20095;-76
2022/04/12 01:36:21;;;;;;;16.08;10.32;;;;;;;;;;5020884;28;20044;-76
2022/04/12 01:38:47;;;;;;;14.98;9.85;;;;;;;;;;5020094;28;20021;-76
2022/04/12 01:41:12;;;;;;;14.48;9.75;;;;;;;;;;5020118;28;20037;-75
2022/04/12 01:43:40;;;;;;;15.65;10.13;;;;;;;;;;5021417;28;20228;-75
2022/04/12 01:46:09;;;;;;;13.75;10.30;;;;;;;;;;5051536;28;20107;-76
2022/04/12 01:48:34;;;;;;;15.43;10.00;;;;;;;;;;5020152;28;20029;-76
2022/04/12 01:51:00;;;;;;;16.48;9.52;;;;;;;;;;5019432;28;20401;-75
2022/04/12 01:53:25;;;;;;;13.88;9.93;;;;;;;;;;5021714;28;20036;-75
2022/04/12 01:55:51;;;;;;;13.85;9.65;;;;;;;;;;5052309;28;20036;-74
2022/04/12 01:58:16;;;;;;;16.27;10.10;;;;;;;;;;5019082;28;20122;-76
2022/04/12 02:00:43;;;;;;;14.82;10.25;;;;;;;;;;5017525;28;20036;-74
2022/04/12 02:03:09;;;;;;;16.33;9.98;;;;;;;;;;5018757;28;20090;-76
2022/04/12 02:05:39;;;;;;;14.13;9.63;;;;;;;;;;5020834;28;20036;-75
2022/04/12 02:08:05;;;;;;;14.30;9.63;;;;;;;;;;5019363;28;20040;-76
2022/04/12 02:10:31;;;;;;;13.38;9.65;;;;;;;;;;5020097;28;20391;-74
2022/04/12 02:12:56;;;;;;;17.25;10.48;;;;;;;;;;5020148;28;20034;-76
2022/04/12 02:15:22;;;;;;;14.98;9.98;;;;;;;;;;5019323;28;20036;-75
2022/04/12 02:17:49;;;;;;;13.15;9.45;;;;;;;;;;5019446;28;20148;-76
2022/04/12 02:20:15;;;;;;;16.13;9.50;;;;;;;;;;5036178;28;20516;-74
2022/04/12 02:22:40;;;;;;;16.08;9.88;;;;;;;;;;5021520;28;20029;-76
2022/04/12 02:25:05;;;;;;;13.80;9.15;;;;;;;;;;5018710;28;20151;-75
2022/04/12 02:27:31;;;;;;;13.82;9.88;;;;;;;;;;5051957;28;21951;-75
2022/04/12 02:29:56;;;;;;;14.85;9.75;;;;;;;;;;5021909;28;20025;-75
2022/04/12 02:32:24;;;;;;;16.80;10.07;;;;;;;;;;5022491;28;20028;-75
2022/04/12 02:34:51;;;;;;;16.65;9.95;;;;;;;;;;5019633;28;20213;-75
2022/04/12 02:37:17;;;;;;;16.85;9.60;;;;;;;;;;5019542;28;21275;-75
2022/04/12 02:39:42;;;;;;;12.88;9.50;;;;;;;;;;5018313;28;20071;-75
2022/04/12 02:42:07;;;;;;;13.23;9.60;;;;;;;;;;5022270;28;20061;-75
2022/04/12 02:44:33;;;;;;;14.45;10.50;;;;;;;;;;5016469;28;20500;-75
2022/04/12 02:46:58;;;;;;;16.98;10.20;;;;;;;;;;5022066;28;20416;-74
2022/04/12 02:49:26;;;;;;;16.08;10.07;;;;;;;;;;5016861;28;20116;-75
2022/04/12 02:51:53;;;;;;;15.45;9.95;;;;;;;;;;5017379;28;20312;-74
2022/04/12 02:54:18;;;;;;;13.82;10.43;;;;;;;;;;5037235;28;20083;-75
2022/04/12 02:56:46;;;;;;;14.40;9.55;;;;;;;;;;5020291;28;20033;-75
2022/04/12 02:59:12;;;;;;;14.18;9.73;;;;;;;;;;5020047;28;20048;-76
2022/04/12 03:01:37;;;;;;;16.08;9.80;;;;;;;;;;5021084;28;20071;-75
2022/04/12 03:04:02;;;;;;;14.45;10.07;;;;;;;;;;5018021;28;20116;-75
2022/04/12 03:06:28;;;;;;;15.77;9.77;;;;;;;;;;5022277;28;20080;-76
2022/04/12 03:08:53;;;;;;;15.95;10.05;;;;;;;;;;5020384;28;20533;-75
2022/04/12 03:11:18;;;;;;;13.13;9.23;;;;;;;;;;5019520;28;20072;-75
2022/04/12 03:13:44;;;;;;;14.85;10.10;;;;;;;;;;5005560;28;20105;-75
2022/04/12 03:16:09;;;;;;;19.50;10.70;;;;;;;;;;5021255;28;20102;-75
2022/04/12 03:18:35;;;;;;;13.90;9.18;;;;;;;;;;5019396;28;20032;-76
2022/04/12 03:21:08;;;;;;;13.32;9.52;;;;;;;;;;5011258;28;20059;-76
2022/04/12 03:23:33;;;;;;;17.58;10.23;;;;;;;;;;5036072;28;20024;-76
2022/04/12 03:25:58;;;;;;;14.80;10.45;;;;;;;;;;5018653;28;20044;-75
2022/04/12 03:28:24;;;;;;;16.52;10.00;;;;;;;;;;5019821;28;20037;-75
2022/04/12 03:30:49;;;;;;;14.00;10.05;;;;;;;;;;5020830;28;20044;-76
2022/04/12 03:33:14;;;;;;;14.00;9.48;;;;;;;;;;5050865;28;20168;-74
2022/04/12 03:35:40;;;;;;;14.27;10.10;;;;;;;;;;5018564;28;20496;-75
2022/04/12 03:38:06;;;;;;;14.35;9.57;;;;;;;;;;5018694;28;20136;-76
2022/04/12 03:40:32;;;;;;;14.25;9.38;;;;;;;;;;5018080;28;20206;-75
2022/04/12 03:43:00;;;;;;;13.68;9.63;;;;;;;;;;5018119;28;20471;-75
2022/04/12 03:45:25;;;;;;;13.43;9.10;;;;;;;;;;5016844;28;20052;-76
2022/04/12 03:47:51;;;;;;;13.45;9.73;;;;;;;;;;5021435;28;20189;-75
2022/04/12 03:50:16;;;;;;;13.55;9.88;;;;;;;;;;5018473;28;20038;-76
2022/04/12 03:52:41;;;;;;;13.02;8.93;;;;;;;;;;5017166;28;20095;-75
2022/04/12 03:55:10;;;;;;;13.68;9.45;;;;;;;;;;5020325;28;20029;-75
2022/04/12 03:57:35;;;;;;;13.88;9.57;;;;;;;;;;5034843;28;20681;-76
2022/04/12 04:00:01;;;;;;;12.80;9.20;;;;;;;;;;5016380;28;20052;-76
2022/04/12 04:02:26;;;;;;;14.32;9.38;;;;;;;;;;5021479;28;20032;-75
2022/04/12 04:04:52;;;;;;;15.20;9.00;;;;;;;;;;5016673;28;20395;-76
2022/04/12 04:07:17;;;;;;;13.07;9.05;;;;;;;;;;5018693;28;20200;-75
2022/04/12 04:09:43;;;;;;;15.77;9.80;;;;;;;;;;5020811;28;20036;-76
2022/04/12 04:12:09;;;;;;;13.60;8.75;;;;;;;;;;5018824;28;20053;-76
2022/04/12 04:14:34;;;;;;;14.55;9.27;;;;;;;;;;5016502;28;20055;-76
2022/04/12 04:17:01;;;;;;;14.15;8.95;;;;;;;;;;5033248;28;20267;-74
2022/04/12 04:19:26;;;;;;;11.57;8.75;;;;;;;;;;5020837;28;20041;-76
2022/04/12 04:21:52;;;;;;;13.05;9.02;;;;;;;;;;5019237;28;20695;-77
2022/04/12 04:24:17;;;;;;;13.85;9.50;;;;;;;;;;5018401;28;20044;-75
2022/04/12 04:26:44;;;;;;;14.85;9.13;;;;;;;;;;5019191;28;20064;-75
2022/04/12 04:29:09;;;;;;;12.52;8.88;;;;;;;;;;5019510;28;20073;-76
2022/04/12 04:31:35;;;;;;;13.88;9.10;;;;;;;;;;5021271;28;20044;-75
2022/04/12 04:34:00;;;;;;;12.82;8.82;;;;;;;;;;5016767;28;20266;-76
2022/04/12 04:36:25;;;;;;;13.85;9.10;;;;;;;;;;5019023;28;20033;-75
2022/04/12 04:38:51;;;;;;;14.25;8.90;;;;;;;;;;5017322;28;20041;-75
2022/04/12 04:41:19;;;;;;;15.02;8.90;;;;;;;;;;5018115;28;20374;-76
2022/04/12 04:43:46;;;;;;;14.43;8.88;;;;;;;;;;5020259;28;20108;-76
2022/04/12 04:46:12;;;;;;;13.48;9.20;;;;;;;;;;5034560;28;20037;-76
2022/04/12 04:48:38;;;;;;;14.15;9.60;;;;;;;;;;5017497;28;20029;-76
2022/04/12 04:51:04;;;;;;;15.65;8.90;;;;;;;;;;5023006;28;20061;-76
2022/04/12 04:53:29;;;;;;;14.85;8.93;;;;;;;;;;5018749;28;20480;-75
2022/04/12 04:55:54;;;;;;;17.52;9.25;;;;;;;;;;5017483;28;20506;-76
2022/04/12 04:58:21;;;;;;;15.40;9.18;;;;;;;;;;5020152;28;20036;-75
2022/04/12 05:00:47;;;;;;;14.15;8.80;;;;;;;;;;5017380;28;20036;-75
2022/04/12 05:03:12;;;;;;;15.27;9.10;;;;;;;;;;5018976;28;20041;-76
2022/04/12 05:05:37;;;;;;;17.23;9.05;;;;;;;;;;5018692;28;20097;-75
2022/04/12 05:08:02;;;;;;;12.80;8.93;;;;;;;;;;5016275;28;20044;-76
2022/04/12 05:10:29;;;;;;;14.80;8.80;;;;;;;;;;5017089;28;20241;-75
2022/04/12 05:12:55;;;;;;;15.02;9.02;;;;;;;;;;5017658;28;20048;-75
2022/04/12 05:15:21;;;;;;;15.02;8.60;;;;;;;;;;5018434;28;20052;-75
2022/04/12 05:17:52;;;;;;;13.45;8.57;;;;;;;;;;5021319;28;20028;-75
2022/04/12 05:20:18;;;;;;;13.68;8.85;;;;;;;;;;5028228;28;20044;-75
2022/04/12 05:22:44;;;;;;;15.48;8.82;;;;;;;;;;5020209;28;20041;-76
2022/04/12 05:25:10;;;;;;;14.38;8.95;;;;;;;;;;5021498;28;20033;-76
2022/04/12 05:27:36;;;;;;;21.65;8.93;;;;;;;;;;5054273;28;21971;-75
2022/04/12 05:30:02;;;;;;;13.57;8.73;;;;;;;;;;5021134;28;20032;-75
2022/04/12 05:32:30;;;;;;;13.07;8.63;;;;;;;;;;5020648;28;20104;-75
2022/04/12 05:34:55;;;;;;;14.88;9.32;;;;;;;;;;5020778;28;20079;-75
2022/04/12 05:37:21;;;;;;;15.73;9.05;;;;;;;;;;5051961;28;21872;-75
2022/04/12 05:39:46;;;;;;;14.82;9.05;;;;;;;;;;5020431;28;20047;-75
2022/04/12 05:42:13;;;;;;;14.13;9.18;;;;;;;;;;5021584;28;20520;-75
2022/04/12 05:44:39;;;;;;;14.18;9.23;;;;;;;;;;5040130;28;20133;-75
2022/04/12 05:47:09;;;;;;;16.83;8.50;;;;;;;;;;5023069;28;20037;-75
2022/04/12 05:49:37;;;;;;;13.00;8.90;;;;;;;;;;5053750;28;20029;-76
2022/04/12 05:52:02;;;;;;;13.82;8.80;;;;;;;;;;5034772;28;20603;-76
2022/04/12 05:54:28;;;;;;;12.82;8.65;;;;;;;;;;5018818;28;20040;-76
2022/04/12 05:56:53;;;;;;;15.98;8.50;;;;;;;;;;5017351;28;20037;-75
2022/04/12 05:59:18;;;;;;;15.38;9.07;;;;;;;;;;5004259;28;20047;-75
2022/04/12 06:01:43;;;;;;;15.98;8.88;;;;;;;;;;5019848;28;20402;-76
2022/04/12 06:04:11;;;;;;;15.80;8.32;;;;;;;;;;5019420;28;20037;-76
2022/04/12 06:06:38;;;;;;;15.50;8.40;;;;;;;;;;5017720;28;20043;-76
2022/04/12 06:09:04;;;;;;;18.80;8.80;;;;;;;;;;5052485;28;20609;-76
2022/04/12 06:11:30;;;;;;;16.80;9.10;;;;;;;;;;5018822;28;20037;-76
2022/04/12 06:13:55;;;;;;;12.95;8.23;;;;;;;;;;5034937;28;20534;-75
2022/04/12 06:16:20;;;;;;;10.98;7.93;;;;;;;;;;5017968;28;20029;-76
2022/04/12 06:18:46;;;;;;;12.27;8.18;;;;;;;;;;5018079;28;20303;-76
2022/04/12 06:21:11;;;;;;;15.27;7.80;;;;;;;;;;5019094;28;20036;-76
2022/04/12 06:23:37;;;;;;;14.10;8.25;;;;;;;;;;5020219;28;20116;-75
2022/04/12 06:26:02;;;;;;;13.00;8.02;;;;;;;;;;5018537;28;20120;-76
2022/04/12 06:28:29;;;;;;;14.93;8.25;;;;;;;;;;5017567;28;21139;-76
2022/04/12 06:30:57;;;;;;;15.82;8.73;;;;;;;;;;5020134;28;20029;-76
2022/04/12 06:33:23;;;;;;;16.92;7.85;;;;;;;;;;5018866;28;20056;-76
2022/04/12 06:35:50;;;;;;;15.10;8.13;;;;;;;;;;5021464;28;20032;-76
2022/04/12 06:38:16;;;;;;;13.63;8.50;;;;;;;;;;5019581;28;20147;-75
2022/04/12 06:40:44;;;;;;;13.45;7.97;;;;;;;;;;5017806;28;20037;-77
2022/04/12 06:43:10;;;;;;;12.00;7.72;;;;;;;;;;5004298;28;20045;-76
2022/04/12 06:45:37;;;;;;;11.23;7.97;;;;;;;;;;5019822;28;20086;-76
2022/04/12 06:48:03;;;;;;;12.07;8.10;;;;;;;;;;5018748;28;20079;-75
2022/04/12 06:50:28;;;;;;;12.88;8.30;;;;;;;;;;5016692;28;20096;-75
2022/04/12 06:52:54;;;;;;;14.63;9.10;;;;;;;;;;5033856;28;20183;-75
2022/04/12 06:55:21;;;;;;;11.50;7.90;;;;;;;;;;5018511;28;20977;-75
2022/04/12 06:57:46;;;;;;;16.60;8.50;;;;;;;;;;5017844;28;20539;-75
2022/04/12 07:00:12;;;;;;;12.15;8.50;;;;;;;;;;4998851;28;20035;-75
2022/04/12 07:02:37;;;;;;;11.90;8.45;;;;;;;;;;5011676;28;20152;-75
2022/04/12 07:05:04;;;;;;;14.43;8.60;;;;;;;;;;5011884;28;20228;-72
2022/04/12 07:07:34;;;;;;;16.40;8.65;;;;;;;;;;5028209;28;20065;-72
2022/04/12 07:09:59;;;;;;;13.07;7.53;;;;;;;;;;5011540;28;20127;-71
2022/04/12 07:12:25;;;;;;;14.90;7.95;;;;;;;;;;5010416;28;20183;-72
2022/04/12 07:14:50;;;;;;;12.05;7.97;;;;;;;;;;5000817;28;20428;-72
2022/04/12 07:17:16;;;;;;;13.25;7.93;;;;;;;;;;5019894;28;20625;-71
2022/04/12 07:19:41;;;;;;;14.55;7.82;;;;;;;;;;5018462;28;20064;-71
2022/04/12 07:22:09;;;;;;;15.65;8.63;;;;;;;;;;5019401;28;20099;-72
2022/04/12 07:24:34;;;;;;;13.60;8.02;;;;;;;;;;5021045;28;20040;-72
2022/04/12 07:26:59;;;;;;;12.63;7.70;;;;;;;;;;5018530;28;22322;-71
2022/04/12 07:29:25;;;;;;;13.77;7.78;;;;;;;;;;5017031;28;20222;-72
2022/04/12 07:31:50;;;;;;;14.23;8.48;;;;;;;;;;5015246;28;20424;-72
2022/04/12 07:34:15;;;;;;;11.90;7.63;;;;;;;;;;5010025;28;20029;-72
2022/04/12 07:36:47;;;;;;;12.57;7.68;;;;;;;;;;5011250;28;20036;-72
2022/04/12 07:39:15;;;;;;;12.57;7.50;;;;;;;;;;5016615;28;20079;-72
2022/04/12 07:41:41;;;;;;;13.52;7.40;;;;;;;;;;5017360;28;20041;-72
2022/04/12 07:44:06;;;;;;;11.05;7.85;;;;;;;;;;5017170;28;20431;-71
2022/04/12 07:46:31;;;;;;;10.63;6.78;;;;;;;;;;5016863;28;20037;-72
2022/04/12 07:48:57;;;;;;;11.18;7.38;;;;;;;;;;5018841;28;20349;-73
2022/04/12 07:51:22;;;;;;;12.30;7.28;;;;;;;;;;5016285;28;20047;-73
2022/04/12 07:53:48;;;;;;;12.00;7.47;;;;;;;;;;5017092;28;20495;-72
2022/04/12 07:56:13;;;;;;;13.40;7.85;;;;;;;;;;5017335;28;20025;-71
2022/04/12 07:58:41;;;;;;;14.57;7.57;;;;;;;;;;5017145;28;20032;-72
2022/04/12 08:01:06;;;;;;;11.65;7.10;;;;;;;;;;5018730;28;20044;-72
2022/04/12 08:03:32;;;;;;;11.05;6.90;;;;;;;;;;5016723;28;20593;-72
2022/04/12 08:05:57;;;;;;;13.57;7.30;;;;;;;;;;5015339;28;20040;-73
2022/04/12 08:08:22;;;;;;;16.50;7.95;;;;;;;;;;5014740;28;20021;-72
2022/04/12 08:10:50;;;;;;;13.05;6.95;;;;;;;;;;5017447;28;20028;-71
2022/04/12 08:13:18;;;;;;;13.07;6.63;;;;;;;;;;5016881;28;20202;-70
2022/04/12 08:15:44;;;;;;;13.80;7.22;;;;;;;;;;5011325;28;21188;-71
2022/04/12 08:18:09;;;;;;;14.70;7.55;;;;;;;;;;5010133;28;20188;-71
2022/04/12 08:20:34;;;;;;;12.48;7.95;;;;;;;;;;5007144;28;20476;-71
2022/04/12 08:23:01;;;;;;;11.65;7.28;;;;;;;;;;5007802;28;20043;-70
2022/04/12 08:25:27;;;;;;;12.50;7.20;;;;;;;;;;5007711;28;20045;-71
2022/04/12 08:27:52;;;;;;;12.05;7.10;;;;;;;;;;5009839;28;20331;-72
2022/04/12 08:30:20;;;;;;;12.82;7.40;;;;;;;;;;5014295;28;20074;-70
2022/04/12 08:32:45;;;;;;;9.85;6.00;;;;;;;;;;5006711;28;20090;-72
2022/04/12 08:35:10;;;;;;;11.38;5.90;;;;;;;;;;5008109;28;20033;-73
2022/04/12 08:37:36;;;;;;;16.23;9.05;;;;;;;;;;5009159;28;20044;-71
2022/04/12 08:40:02;;;;;;;10.15;6.45;;;;;;;;;;5009135;28;20046;-72
2022/04/12 08:42:27;;;;;;;12.20;6.80;;;;;;;;;;5007132;28;20117;-73
2022/04/12 08:44:53;;;;;;;11.70;6.50;;;;;;;;;;5008449;28;20033;-73
2022/04/12 08:47:22;;;;;;;11.95;6.60;;;;;;;;;;5008453;28;20052;-71
2022/04/12 08:49:47;;;;;;;10.00;6.00;;;;;;;;;;5040071;28;20028;-73
2022/04/12 08:52:16;;;;;;;10.73;6.38;;;;;;;;;;5013177;28;20170;-73
2022/04/12 08:54:42;;;;;;;16.35;6.22;;;;;;;;;;5008730;28;20045;-73
2022/04/12 08:57:08;;;;;;;8.90;5.40;;;;;;;;;;5016123;28;20041;-70
2022/04/12 08:59:33;;;;;;;8.50;4.30;;;;;;;;;;5042957;28;20112;-74
2022/04/12 09:01:59;;;;;;;9.02;4.45;;;;;;;;;;5034389;28;20044;-71
2022/04/12 09:04:28;;;;;;;8.73;5.25;;;;;;;;;;5015448;28;20026;-73
2022/04/12 09:06:53;;;;;;;11.07;4.70;;;;;;;;;;5043699;28;20037;-71
2022/04/12 09:09:21;;;;;;;8.27;5.03;;;;;;;;;;5013799;28;20682;-71
2022/04/12 09:12:06;;;;;;;8.55;4.30;;;;;;;;;;5013490;28;20301;-73
2022/04/12 09:14:41;;;;;;;8.70;4.15;;;;;;;;;;5014024;28;20037;-71
2022/04/12 09:17:10;;;;;;;8.88;4.63;;;;;;;;;;5028169;28;20160;-71
2022/04/12 09:19:39;;;;;;;9.35;4.95;;;;;;;;;;5013390;28;20083;-72
2022/04/12 09:22:12;;;;;;;9.38;4.63;;;;;;;;;;5043255;28;20408;-72
2022/04/12 09:24:45;;;;;;;6.85;4.10;;;;;;;;;;5013858;28;20140;-70
2022/04/12 09:27:11;;;;;;;7.78;4.40;;;;;;;;;;5014490;28;20037;-71
2022/04/12 09:29:42;;;;;;;8.32;4.25;;;;;;;;;;5016964;28;20833;-72
2022/04/12 09:32:13;;;;;;;8.55;3.80;;;;;;;;;;5019993;28;20477;-71
2022/04/12 09:34:39;;;;;;;8.10;3.97;;;;;;;;;;5019916;28;20082;-72
2022/04/12 09:37:15;;;;;;;7.72;4.10;;;;;;;;;;5018620;28;20477;-73
2022/04/12 09:39:40;;;;;;;7.78;3.80;;;;;;;;;;5013021;28;20519;-72
2022/04/12 09:42:08;;;;;;;6.15;3.80;;;;;;;;;;5001931;28;21323;-72
2022/04/12 09:44:34;;;;;;;7.35;4.00;;;;;;;;;;5028656;28;20416;-72
2022/04/12 09:47:01;;;;;;;10.10;4.00;;;;;;;;;;5025806;28;20227;-73
2022/04/12 09:49:26;;;;;;;10.52;5.00;;;;;;;;;;5013209;28;21305;-73
2022/04/12 09:51:51;;;;;;;10.75;4.43;;;;;;;;;;5013044;28;20207;-71
2022/04/12 09:54:26;;;;;;;9.77;4.65;;;;;;;;;;5012265;28;20033;-70
2022/04/12 09:56:53;;;;;;;7.30;3.88;;;;;;;;;;5001415;28;20060;-71
2022/04/12 09:59:21;;;;;;;7.18;3.97;;;;;;;;;;5016867;28;20418;-72
2022/04/12 10:01:50;;;;;;;8.82;3.90;;;;;;;;;;5011843;28;20226;-70
2022/04/12 10:04:17;;;;;;;6.75;3.80;;;;;;;;;;5012338;28;20060;-70
2022/04/12 10:06:42;;;;;;;7.50;3.65;;;;;;;;;;5013222;28;20029;-70
2022/04/12 10:09:10;;;;;;;8.13;4.05;;;;;;;;;;5012425;28;20370;-72
2022/04/12 10:11:38;;;;;;;9.48;4.18;;;;;;;;;;5011371;28;21243;-72
2022/04/12 10:14:04;;;;;;;7.15;3.70;;;;;;;;;;5014188;28;20695;-73
2022/04/12 10:16:30;;;;;;;5.97;3.30;;;;;;;;;;5012342;28;20191;-70
2022/04/12 10:18:59;;;;;;;6.80;3.80;;;;;;;;;;5010605;28;20066;-70
2022/04/12 10:21:26;;;;;;;5.75;3.72;;;;;;;;;;5014207;28;20120;-70
2022/04/12 10:23:54;;;;;;;8.10;3.60;;;;;;;;;;5028066;28;20240;-71
2022/04/12 10:26:26;;;;;;;5.50;3.50;;;;;;;;;;5026231;28;20009;-70
2022/04/12 10:28:57;;;;;;;4.95;3.20;;;;;;;;;;5010779;28;20083;-69
2022/04/12 10:31:30;;;;;;;8.38;3.13;;;;;;;;;;5011580;28;20192;-70
2022/04/12 10:34:02;;;;;;;5.85;3.20;;;;;;;;;;5013878;28;20150;-70
2022/04/12 10:36:45;;;;;;;6.82;3.42;;;;;;;;;;5012452;28;20370;-70
2022/04/12 10:39:12;;;;;;;8.65;3.40;;;;;;;;;;5017456;28;20199;-70
2022/04/12 10:41:42;;;;;;;6.90;3.50;;;;;;;;;;5018832;28;20072;-70
2022/04/12 10:44:18;;;;;;;5.88;3.20;;;;;;;;;;5019466;28;20281;-70
2022/04/12 10:46:51;;;;;;;7.85;3.53;;;;;;;;;;5011219;28;20166;-69
2022/04/12 10:49:20;;;;;;;8.43;3.45;;;;;;;;;;5013403;28;20029;-70
2022/04/12 10:51:46;;;;;;;8.95;3.70;;;;;;;;;;5008845;28;20079;-71
2022/04/12 10:54:31;;;;;;;6.70;3.65;;;;;;;;;;5013305;28;20096;-69
2022/04/12 10:57:15;;;;;;;7.13;3.70;;;;;;;;;;5014067;28;20036;-70
2022/04/12 10:59:45;;;;;;;7.10;4.03;;;;;;;;;;5012509;28;20614;-70
2022/04/12 11:02:14;;;;;;;7.45;3.88;;;;;;;;;;5012429;28;20533;-69
2022/04/12 11:04:39;;;;;;;7.15;3.30;;;;;;;;;;5013813;28;20029;-70
2022/04/12 11:07:06;;;;;;;8.20;3.55;;;;;;;;;;5012656;28;20630;-69
2022/04/12 11:09:31;;;;;;;7.82;3.72;;;;;;;;;;5010676;28;20097;-68
2022/04/12 11:12:01;;;;;;;4.90;3.22;;;;;;;;;;5012465;28;20107;-70
2022/04/12 11:14:29;;;;;;;8.90;3.58;;;;;;;;;;5010841;28;20057;-69
2022/04/12 11:16:57;;;;;;;8.18;3.97;;;;;;;;;;5009709;28;20041;-70
2022/04/12 11:19:25;;;;;;;5.97;3.70;;;;;;;;;;5012878;28;20052;-72
2022/04/12 11:21:51;;;;;;;7.82;3.63;;;;;;;;;;5040330;28;20122;-70
2022/04/12 11:24:21;;;;;;;9.45;3.72;;;;;;;;;;5011209;28;20774;-72
2022/04/12 11:26:48;;;;;;;7.00;3.33;;;;;;;;;;5008416;28;20033;-70
2022/04/12 11:29:18;;;;;;;5.65;3.00;;;;;;;;;;5042026;28;20040;-69
2022/04/12 11:31:48;;;;;;;5.03;2.60;;;;;;;;;;5042071;28;20647;-70
2022/04/12 11:34:13;;;;;;;6.15;2.80;;;;;;;;;;5014886;28;20139;-69
2022/04/12 11:36:39;;;;;;;8.85;3.05;;;;;;;;;;5011445;28;20308;-70
2022/04/12 11:39:07;;;;;;;8.02;3.20;;;;;;;;;;5013941;28;21833;-69
2022/04/12 11:41:33;;;;;;;8.07;3.00;;;;;;;;;;4993845;28;20043;-70
2022/04/12 11:44:01;;;;;;;7.40;3.50;;;;;;;;;;5008057;28;20841;-69
2022/04/12 11:46:28;;;;;;;5.93;3.10;;;;;;;;;;5008312;28;20116;-70
2022/04/12 11:49:02;;;;;;;7.28;3.15;;;;;;;;;;5013093;28;20037;-72
2022/04/12 11:51:27;;;;;;;7.03;3.40;;;;;;;;;;5018077;28;20571;-72
2022/04/12 11:53:52;;;;;;;5.88;3.30;;;;;;;;;;5017598;28;20128;-71
2022/04/12 11:56:18;;;;;;;6.88;3.60;;;;;;;;;;5047623;28;20044;-70
2022/04/12 11:58:46;;;;;;;7.75;4.00;;;;;;;;;;5017350;28;20109;-72
2022/04/12 12:01:13;;;;;;;7.90;3.75;;;;;;;;;;5015968;28;20388;-72
2022/04/12 12:03:42;;;;;;;8.63;4.03;;;;;;;;;;5016557;28;20029;-71
2022/04/12 12:06:07;;;;;;;6.75;4.00;;;;;;;;;;5015018;28;20033;-72
2022/04/12 12:08:33;;;;;;;11.02;4.18;;;;;;;;;;5016195;28;20067;-73
2022/04/12 12:11:08;;;;;;;6.70;4.40;;;;;;;;;;5015224;28;20060;-71
2022/04/12 12:13:34;;;;;;;13.43;5.68;;;;;;;;;;5016535;28;20081;-71
2022/04/12 12:15:59;;;;;;;10.25;5.75;;;;;;;;;;5017957;28;20143;-71
2022/04/12 12:18:24;;;;;;;8.98;5.65;;;;;;;;;;5016157;28;20125;-72
2022/04/12 12:20:49;;;;;;;12.05;6.50;;;;;;;;;;5017667;28;20078;-74
2022/04/12 12:23:17;;;;;;;16.40;7.25;;;;;;;;;;5015581;28;20044;-72
2022/04/12 12:25:48;;;;;;;10.82;6.22;;;;;;;;;;5023216;28;20061;-73
2022/04/12 12:28:18;;;;;;;13.02;6.20;;;;;;;;;;5021384;28;20088;-72
2022/04/12 12:30:44;;;;;;;16.50;5.60;;;;;;;;;;5020429;28;20093;-72
2022/04/12 12:33:10;;;;;;;10.63;5.65;;;;;;;;;;5020952;28;20044;-74
2022/04/12 12:35:41;;;;;;;10.43;5.20;;;;;;;;;;5019602;28;20017;-75
2022/04/12 12:38:06;;;;;;;10.23;4.55;;;;;;;;;;5046048;28;20044;-73
2022/04/12 12:40:33;;;;;;;11.18;4.78;;;;;;;;;;5021938;28;20021;-75
2022/04/12 12:43:01;;;;;;;8.55;4.50;;;;;;;;;;5021272;28;20098;-73
2022/04/12 12:45:26;;;;;;;9.73;3.80;;;;;;;;;;5021683;28;20327;-72
2022/04/12 12:47:53;;;;;;;8.05;4.13;;;;;;;;;;5020211;28;20037;-72
2022/04/12 12:50:21;;;;;;;8.07;3.85;;;;;;;;;;5018726;28;20029;-73
2022/04/12 12:52:47;;;;;;;10.88;4.47;;;;;;;;;;5022331;28;20033;-73
2022/04/12 12:55:14;;;;;;;9.45;3.90;;;;;;;;;;5020382;28;20350;-72
2022/04/12 12:57:43;;;;;;;9.38;3.97;;;;;;;;;;5049894;28;20102;-74
2022/04/12 13:00:09;;;;;;;9.40;3.90;;;;;;;;;;5020536;28;20129;-73
2022/04/12 13:02:36;;;;;;;8.40;3.88;;;;;;;;;;5020359;28;20063;-74
2022/04/12 13:05:06;;;;;;;9.68;4.43;;;;;;;;;;5020829;28;20481;-73
2022/04/12 13:07:34;;;;;;;7.90;4.40;;;;;;;;;;5020482;28;20342;-72
2022/04/12 13:10:08;;;;;;;9.63;4.78;;;;;;;;;;5020928;28;20427;-73
2022/04/12 13:12:34;;;;;;;10.82;5.10;;;;;;;;;;5021677;28;20121;-72
2022/04/12 13:15:00;;;;;;;7.63;5.03;;;;;;;;;;5020460;28;20041;-71
2022/04/12 13:17:27;;;;;;;10.40;5.78;;;;;;;;;;5022190;28;20541;-73
2022/04/12 13:19:53;;;;;;;15.40;6.25;;;;;;;;;;5020477;28;20044;-73
2022/04/12 13:22:19;;;;;;;10.10;6.68;;;;;;;;;;5021275;28;20038;-72
2022/04/12 13:24:44;;;;;;;13.02;5.97;;;;;;;;;;5018711;28;20059;-72
2022/04/12 13:27:09;;;;;;;12.80;6.97;;;;;;;;;;5021624;28;20387;-72
2022/04/12 13:29:35;;;;;;;11.70;5.97;;;;;;;;;;5021220;28;20559;-71
2022/04/12 13:32:03;;;;;;;10.95;6.05;;;;;;;;;;5024362;28;20558;-72
2022/04/12 13:34:31;;;;;;;11.88;7.10;;;;;;;;;;5021079;28;20037;-72
2022/04/12 13:36:56;;;;;;;11.38;7.10;;;;;;;;;;5020978;28;20929;-73
2022/04/12 13:39:24;;;;;;;14.40;7.38;;;;;;;;;;5019245;28;20128;-73
2022/04/12 13:41:50;;;;;;;12.80;7.55;;;;;;;;;;5027467;28;21815;-73
2022/04/12 13:44:15;;;;;;;11.98;7.63;;;;;;;;;;5019091;28;20031;-73
2022/04/12 13:46:40;;;;;;;12.63;7.78;;;;;;;;;;5038851;28;20037;-73
2022/04/12 13:49:05;;;;;;;12.45;7.80;;;;;;;;;;5021425;28;20033;-72
2022/04/12 13:51:31;;;;;;;11.82;8.00;;;;;;;;;;5020619;28;20482;-72
2022/04/12 13:53:58;;;;;;;13.95;8.30;;;;;;;;;;5009969;28;20663;-73
2022/04/12 13:56:26;;;;;;;15.98;8.00;;;;;;;;;;5028184;28;20091;-72
2022/04/12 13:58:52;;;;;;;14.20;8.32;;;;;;;;;;5017336;28;20045;-72
2022/04/12 14:01:17;;;;;;;15.35;8.48;;;;;;;;;;5020075;28;20842;-73
2022/04/12 14:03:42;;;;;;;11.77;8.00;;;;;;;;;;5019815;28;20361;-70
2022/04/12 14:06:07;;;;;;;13.27;8.30;;;;;;;;;;5019678;28;20067;-71
2022/04/12 14:08:35;;;;;;;13.60;7.85;;;;;;;;;;5017265;28;20044;-71
2022/04/12 14:11:00;;;;;;;12.57;7.57;;;;;;;;;;5018795;28;20026;-71
2022/04/12 14:13:26;;;;;;;18.60;8.25;;;;;;;;;;5017639;28;20070;-72
2022/04/12 14:15:52;;;;;;;16.15;8.80;;;;;;;;;;5018245;28;20903;-71
2022/04/12 14:18:20;;;;;;;14.13;8.45;;;;;;;;;;5019736;28;20055;-72
2022/04/12 14:20:46;;;;;;;13.98;8.38;;;;;;;;;;5019108;28;20370;-73
2022/04/12 14:23:11;;;;;;;14.45;8.48;;;;;;;;;;5021501;28;20294;-73
2022/04/12 14:25:40;;;;;;;14.35;8.48;;;;;;;;;;5019388;28;22050;-71
2022/04/12 14:28:10;;;;;;;14.80;8.63;;;;;;;;;;5017977;28;20033;-71
2022/04/12 14:30:39;;;;;;;13.45;8.30;;;;;;;;;;5019719;28;20080;-73